NCAR-RAP Real-Time Weather Data

Output produced by METARs form (10 April 2020  07:16 UTC)
found at http://weather.rap.ucar.edu/surface/
 
KSPS 100652Z AUTO 03005KT 10SM CLR 10/07 A3010 RMK AO2 SLP187 T01000067
KSPS 100552Z AUTO 02005KT 10SM CLR 10/07 A3008 RMK AO2 SLP181 T01000072 10194 20100 402330100 51022
KSPS 100452Z AUTO 04006KT 10SM CLR 12/07 A3007 RMK AO2 SLP177 T01170072
KSPS 100352Z AUTO 02007KT 10SM CLR 12/07 A3004 RMK AO2 SLP166 T01220067
KSPS 100252Z AUTO 03009KT 10SM CLR 14/07 A3002 RMK AO2 SLP158 T01390067 53024
KSPS 100152Z AUTO 03009KT 10SM CLR 15/07 A2997 RMK AO2 SLP143 T01500072
KSPS 100052Z AUTO 03011KT 10SM CLR 18/07 A2995 RMK AO2 SLP136 T01830072
KSPS 092352Z AUTO 03008KT 10SM CLR 19/10 A2994 RMK AO2 SLP133 T01940100 10233 20194 58001
KSPS 092252Z AUTO 04010KT 10SM CLR 21/10 A2994 RMK AO2 SLP131 T02060100
KSPS 092152Z 06011KT 10SM SCT150 BKN170 BKN250 22/08 A2996 RMK AO2 SLP136 T02220078
KSPS 092052Z 07015KT 9SM BKN140 BKN170 BKN250 23/10 A2995 RMK AO2 SLP132 T02280100 58015
KSPS 091952Z 07012G18KT 9SM SCT140 SCT170 BKN250 22/11 A2997 RMK AO2 SLP139 T02170106
KSPS 091852Z 05016KT 10SM SCT140 BKN170 BKN250 22/10 A2999 RMK AO2 SLP145 T02170100
KSPS 091752Z 05017G23KT 10SM SCT140 BKN180 BKN250 21/09 A2999 RMK AO2 SLP147 60000 T02060089 10211 20133 58001
KSPS 091652Z 04016G22KT 9SM CLR 19/09 A3002 RMK AO2 SLP159 T01940094
KSPS 091552Z 03016KT 8SM BKN200 19/10 A3001 RMK AO2 RAB45E47 SLP155 P0000 T01890100
KSPS 091452Z 05014KT 10SM CLR 17/10 A3000 RMK AO2 SLP148 T01720100 51027
KSPS 091352Z 02008KT 10SM BKN200 16/11 A2999 RMK AO2 PRESRR SLP146 T01610111
KSPS 091252Z 03008KT 10SM CLR 14/11 A2994 RMK AO2 SLP129 T01390106
KSPS 091152Z 03005KT 10SM CLR 14/10 A2991 RMK AO2 SLP119 T01390100 10189 20133 53013
KSPS 091052Z AUTO 04007KT 10SM CLR 13/11 A2989 RMK AO2 SLP111 T01330106
KSPS 090952Z AUTO 02006KT 10SM CLR 14/10 A2988 RMK AO2 SLP107 T01440100
KSPS 090852Z AUTO 04006KT 10SM CLR 15/11 A2987 RMK AO2 SLP104 T01500106 58002